sensor_id;sensor_type;location;lat;lon;timestamp;pressure;altitude;pressure_sealevel;temperature;humidity
58761;BME280;44529;47.464;19.014;2022-07-23T00:02:25;100069.47;;;25.93;49.00
58761;BME280;44529;47.464;19.014;2022-07-23T00:05:27;100071.13;;;25.87;49.09
58761;BME280;44529;47.464;19.014;2022-07-23T00:08:29;100074.34;;;25.86;48.77
58761;BME280;44529;47.464;19.014;2022-07-23T00:11:32;100068.84;;;25.82;49.05
58761;BME280;44529;47.464;19.014;2022-07-23T00:14:34;100070.91;;;25.78;49.02
58761;BME280;44529;47.464;19.014;2022-07-23T00:17:36;100069.38;;;25.74;49.27
58761;BME280;44529;47.464;19.014;2022-07-23T00:20:38;100074.63;;;25.64;49.42
58761;BME280;44529;47.464;19.014;2022-07-23T00:23:41;100069.91;;;25.61;49.60
58761;BME280;44529;47.464;19.014;2022-07-23T00:26:43;100074.75;;;25.57;49.73
58761;BME280;44529;47.464;19.014;2022-07-23T00:29:45;100072.75;;;25.58;50.02
58761;BME280;44529;47.464;19.014;2022-07-23T00:32:50;100074.00;;;25.53;50.18
58761;BME280;44529;47.464;19.014;2022-07-23T00:35:58;100074.03;;;25.50;50.50
58761;BME280;44529;47.464;19.014;2022-07-23T00:39:00;100077.78;;;25.36;51.03
58761;BME280;44529;47.464;19.014;2022-07-23T00:42:03;100079.44;;;25.33;51.13
58761;BME280;44529;47.464;19.014;2022-07-23T00:45:06;100083.84;;;25.27;51.33
58761;BME280;44529;47.464;19.014;2022-07-23T00:48:09;100085.88;;;25.23;50.99
58761;BME280;44529;47.464;19.014;2022-07-23T00:51:11;100095.81;;;25.21;50.82
58761;BME280;44529;47.464;19.014;2022-07-23T00:54:14;100091.84;;;25.22;50.75
58761;BME280;44529;47.464;19.014;2022-07-23T00:57:17;100100.97;;;25.19;50.80
58761;BME280;44529;47.464;19.014;2022-07-23T01:00:20;100094.78;;;25.04;51.04
58761;BME280;44529;47.464;19.014;2022-07-23T01:03:22;100088.88;;;25.02;50.94
58761;BME280;44529;47.464;19.014;2022-07-23T01:06:25;100088.88;;;25.05;51.09
58761;BME280;44529;47.464;19.014;2022-07-23T01:09:28;100088.09;;;25.01;51.10
58761;BME280;44529;47.464;19.014;2022-07-23T01:12:31;100086.22;;;24.95;51.16
58761;BME280;44529;47.464;19.014;2022-07-23T01:15:35;100083.09;;;24.89;51.44
58761;BME280;44529;47.464;19.014;2022-07-23T01:18:38;100092.34;;;24.75;52.11
58761;BME280;44529;47.464;19.014;2022-07-23T01:21:42;100089.25;;;24.70;52.22
58761;BME280;44529;47.464;19.014;2022-07-23T01:24:46;100086.47;;;24.70;52.29
58761;BME280;44529;47.464;19.014;2022-07-23T01:27:49;100081.37;;;24.68;52.42
58761;BME280;44529;47.464;19.014;2022-07-23T01:30:51;100074.72;;;24.62;52.77
58761;BME280;44529;47.464;19.014;2022-07-23T01:33:54;100077.09;;;24.60;53.17
58761;BME280;44529;47.464;19.014;2022-07-23T01:36:57;100079.62;;;24.47;53.46
58761;BME280;44529;47.464;19.014;2022-07-23T01:39:59;100076.09;;;24.40;53.98
58761;BME280;44529;47.464;19.014;2022-07-23T01:43:04;100080.06;;;24.39;54.11
58761;BME280;44529;47.464;19.014;2022-07-23T01:46:08;100074.59;;;24.35;54.33
58761;BME280;44529;47.464;19.014;2022-07-23T01:49:11;100078.56;;;24.27;54.83
58761;BME280;44529;47.464;19.014;2022-07-23T01:52:14;100073.09;;;24.20;55.22
58761;BME280;44529;47.464;19.014;2022-07-23T01:55:17;100071.97;;;24.14;55.14
58761;BME280;44529;47.464;19.014;2022-07-23T01:58:20;100070.81;;;24.11;55.32
58761;BME280;44529;47.464;19.014;2022-07-23T02:01:23;100069.28;;;24.07;55.70
58761;BME280;44529;47.464;19.014;2022-07-23T02:04:26;100073.22;;;24.05;55.73
58761;BME280;44529;47.464;19.014;2022-07-23T02:07:28;100066.16;;;24.01;56.04
58761;BME280;44529;47.464;19.014;2022-07-23T02:10:34;100067.34;;;24.00;55.79
58761;BME280;44529;47.464;19.014;2022-07-23T02:13:38;100069.75;;;23.98;55.82
58761;BME280;44529;47.464;19.014;2022-07-23T02:16:40;100071.78;;;23.90;55.72
58761;BME280;44529;47.464;19.014;2022-07-23T02:19:43;100076.53;;;23.86;55.82
58761;BME280;44529;47.464;19.014;2022-07-23T02:22:45;100079.72;;;23.81;55.88
58761;BME280;44529;47.464;19.014;2022-07-23T02:25:47;100080.56;;;23.78;55.75
58761;BME280;44529;47.464;19.014;2022-07-23T02:28:50;100076.22;;;23.73;55.71
58761;BME280;44529;47.464;19.014;2022-07-23T02:31:52;100075.88;;;23.71;55.61
58761;BME280;44529;47.464;19.014;2022-07-23T02:34:55;100082.16;;;23.72;54.51
58761;BME280;44529;47.464;19.014;2022-07-23T02:37:57;100078.22;;;23.73;54.31
58761;BME280;44529;47.464;19.014;2022-07-23T02:41:00;100071.13;;;23.72;54.24
58761;BME280;44529;47.464;19.014;2022-07-23T02:44:03;100073.09;;;23.71;54.28
58761;BME280;44529;47.464;19.014;2022-07-23T02:47:05;100072.75;;;23.62;54.69
58761;BME280;44529;47.464;19.014;2022-07-23T02:50:08;100079.84;;;23.60;54.57
58761;BME280;44529;47.464;19.014;2022-07-23T02:53:10;100075.13;;;23.57;54.83
58761;BME280;44529;47.464;19.014;2022-07-23T02:56:13;100068.81;;;23.60;54.51
58761;BME280;44529;47.464;19.014;2022-07-23T02:59:17;100065.66;;;23.58;54.62
58761;BME280;44529;47.464;19.014;2022-07-23T03:02:19;100072.34;;;23.57;54.75
58761;BME280;44529;47.464;19.014;2022-07-23T03:05:22;100074.34;;;23.56;54.94
58761;BME280;44529;47.464;19.014;2022-07-23T03:08:24;100073.19;;;23.54;54.79
58761;BME280;44529;47.464;19.014;2022-07-23T03:11:27;100068.84;;;23.52;54.77
58761;BME280;44529;47.464;19.014;2022-07-23T03:14:29;100075.16;;;23.53;54.44
58761;BME280;44529;47.464;19.014;2022-07-23T03:17:31;100076.72;;;23.50;54.58
58761;BME280;44529;47.464;19.014;2022-07-23T03:20:34;100073.59;;;23.48;54.66
58761;BME280;44529;47.464;19.014;2022-07-23T03:23:36;100080.72;;;23.46;54.93
58761;BME280;44529;47.464;19.014;2022-07-23T03:26:39;100083.50;;;23.42;54.84
58761;BME280;44529;47.464;19.014;2022-07-23T03:29:42;100081.56;;;23.39;55.04
58761;BME280;44529;47.464;19.014;2022-07-23T03:32:44;100081.13;;;23.41;55.24
58761;BME280;44529;47.464;19.014;2022-07-23T03:35:47;100074.44;;;23.42;55.27
58761;BME280;44529;47.464;19.014;2022-07-23T03:38:50;100076.41;;;23.38;55.47
58761;BME280;44529;47.464;19.014;2022-07-23T03:41:53;100073.31;;;23.32;55.75
58761;BME280;44529;47.464;19.014;2022-07-23T03:44:56;100077.63;;;23.30;56.16
58761;BME280;44529;47.464;19.014;2022-07-23T03:47:58;100078.06;;;23.28;56.42
58761;BME280;44529;47.464;19.014;2022-07-23T03:51:03;100074.50;;;23.24;56.75
58761;BME280;44529;47.464;19.014;2022-07-23T03:54:05;100084.78;;;23.20;56.99
58761;BME280;44529;47.464;19.014;2022-07-23T03:57:08;100090.69;;;23.22;57.18
58761;BME280;44529;47.464;19.014;2022-07-23T04:00:11;100090.28;;;23.23;57.19
58761;BME280;44529;47.464;19.014;2022-07-23T04:03:14;100080.44;;;23.26;57.26
58761;BME280;44529;47.464;19.014;2022-07-23T04:06:17;100083.97;;;23.27;57.07
58761;BME280;44529;47.464;19.014;2022-07-23T04:09:21;100081.22;;;23.27;57.33
58761;BME280;44529;47.464;19.014;2022-07-23T04:12:24;100088.72;;;23.26;57.17
58761;BME280;44529;47.464;19.014;2022-07-23T04:15:26;100093.81;;;23.24;57.39
58761;BME280;44529;47.464;19.014;2022-07-23T04:18:29;100088.72;;;23.26;57.52
58761;BME280;44529;47.464;19.014;2022-07-23T04:21:32;100101.31;;;23.23;56.39
58761;BME280;44529;47.464;19.014;2022-07-23T04:24:35;100100.94;;;23.25;56.47
58761;BME280;44529;47.464;19.014;2022-07-23T04:27:37;100103.69;;;23.25;56.12
58761;BME280;44529;47.464;19.014;2022-07-23T04:30:40;100096.94;;;23.30;55.61
58761;BME280;44529;47.464;19.014;2022-07-23T04:33:42;100098.16;;;23.29;55.82
58761;BME280;44529;47.464;19.014;2022-07-23T04:36:45;100102.47;;;23.33;55.62
58761;BME280;44529;47.464;19.014;2022-07-23T04:39:47;100099.66;;;23.40;55.34
58761;BME280;44529;47.464;19.014;2022-07-23T04:42:50;100098.09;;;23.39;55.27
58761;BME280;44529;47.464;19.014;2022-07-23T04:45:52;100100.47;;;23.41;55.49
58761;BME280;44529;47.464;19.014;2022-07-23T04:48:55;100096.50;;;23.45;55.62
58761;BME280;44529;47.464;19.014;2022-07-23T04:51:57;100106.34;;;23.43;56.15
58761;BME280;44529;47.464;19.014;2022-07-23T04:54:59;100115.41;;;23.43;56.36
58761;BME280;44529;47.464;19.014;2022-07-23T04:58:02;100113.03;;;23.49;56.35
58761;BME280;44529;47.464;19.014;2022-07-23T05:01:05;100113.00;;;23.52;56.33
58761;BME280;44529;47.464;19.014;2022-07-23T05:04:08;100112.59;;;23.58;56.19
58761;BME280;44529;47.464;19.014;2022-07-23T05:07:11;100110.22;;;23.63;56.22
58761;BME280;44529;47.464;19.014;2022-07-23T05:10:13;100105.09;;;23.65;56.34
58761;BME280;44529;47.464;19.014;2022-07-23T05:13:16;100106.59;;;23.73;56.37
58761;BME280;44529;47.464;19.014;2022-07-23T05:16:19;100100.25;;;23.80;56.65
58761;BME280;44529;47.464;19.014;2022-07-23T05:19:22;100105.75;;;23.84;56.38
58761;BME280;44529;47.464;19.014;2022-07-23T05:22:26;100098.56;;;23.93;56.49
58761;BME280;44529;47.464;19.014;2022-07-23T05:25:29;100103.69;;;23.98;56.21
58761;BME280;44529;47.464;19.014;2022-07-23T05:28:32;100103.62;;;24.05;56.33
58761;BME280;44529;47.464;19.014;2022-07-23T05:31:34;100107.53;;;24.12;55.88
58761;BME280;44529;47.464;19.014;2022-07-23T05:34:36;100109.03;;;24.20;55.62
58761;BME280;44529;47.464;19.014;2022-07-23T05:37:39;100107.75;;;24.28;55.74
58761;BME280;44529;47.464;19.014;2022-07-23T05:40:41;100107.34;;;24.37;55.49
58761;BME280;44529;47.464;19.014;2022-07-23T05:43:44;100117.91;;;24.45;55.40
58761;BME280;44529;47.464;19.014;2022-07-23T05:46:48;100112.72;;;24.54;55.39
58761;BME280;44529;47.464;19.014;2022-07-23T05:49:51;100107.47;;;24.64;54.48
58761;BME280;44529;47.464;19.014;2022-07-23T05:52:54;100103.41;;;24.75;54.09
58761;BME280;44529;47.464;19.014;2022-07-23T05:55:58;100104.47;;;24.85;54.03
58761;BME280;44529;47.464;19.014;2022-07-23T05:59:01;100103.59;;;24.95;53.74
58761;BME280;44529;47.464;19.014;2022-07-23T06:02:04;100104.28;;;25.03;53.35
58761;BME280;44529;47.464;19.014;2022-07-23T06:05:07;100106.56;;;25.11;53.14
58761;BME280;44529;47.464;19.014;2022-07-23T06:08:10;100111.19;;;25.22;52.13
58761;BME280;44529;47.464;19.014;2022-07-23T06:11:12;100100.41;;;25.31;51.02
58761;BME280;44529;47.464;19.014;2022-07-23T06:14:14;100100.69;;;25.40;49.82
58761;BME280;44529;47.464;19.014;2022-07-23T06:17:18;100098.56;;;25.51;49.03
58761;BME280;44529;47.464;19.014;2022-07-23T06:20:21;100096.84;;;25.61;48.73
58761;BME280;44529;47.464;19.014;2022-07-23T06:23:24;100089.97;;;25.69;48.59
58761;BME280;44529;47.464;19.014;2022-07-23T06:26:27;100090.34;;;25.75;47.77
58761;BME280;44529;47.464;19.014;2022-07-23T06:29:30;100088.63;;;25.84;47.19
58761;BME280;44529;47.464;19.014;2022-07-23T06:32:32;100085.72;;;25.91;46.86
58761;BME280;44529;47.464;19.014;2022-07-23T06:35:34;100085.19;;;26.00;46.63
58761;BME280;44529;47.464;19.014;2022-07-23T06:38:37;100085.84;;;26.08;46.41
58761;BME280;44529;47.464;19.014;2022-07-23T06:41:40;100087.31;;;26.16;46.68
58761;BME280;44529;47.464;19.014;2022-07-23T06:44:43;100091.53;;;26.24;46.64
58761;BME280;44529;47.464;19.014;2022-07-23T06:47:45;100087.38;;;26.36;46.05
58761;BME280;44529;47.464;19.014;2022-07-23T06:50:48;100080.47;;;26.48;45.75
58761;BME280;44529;47.464;19.014;2022-07-23T06:53:50;100083.50;;;26.53;45.23
58761;BME280;44529;47.464;19.014;2022-07-23T06:56:52;100080.53;;;26.64;44.40
58761;BME280;44529;47.464;19.014;2022-07-23T06:59:55;100086.69;;;26.75;44.19
58761;BME280;44529;47.464;19.014;2022-07-23T07:02:57;100089.59;;;26.88;43.85
58761;BME280;44529;47.464;19.014;2022-07-23T07:05:59;100080.56;;;27.04;43.64
58761;BME280;44529;47.464;19.014;2022-07-23T07:09:02;100084.28;;;27.17;43.45
58761;BME280;44529;47.464;19.014;2022-07-23T07:12:05;100082.41;;;27.30;43.70
58761;BME280;44529;47.464;19.014;2022-07-23T07:15:07;100069.78;;;27.45;42.44
58761;BME280;44529;47.464;19.014;2022-07-23T07:18:10;100071.28;;;27.66;41.78
58761;BME280;44529;47.464;19.014;2022-07-23T07:21:12;100070.47;;;27.86;41.39
58761;BME280;44529;47.464;19.014;2022-07-23T07:24:15;100066.63;;;28.12;41.16
58761;BME280;44529;47.464;19.014;2022-07-23T07:27:17;100064.34;;;28.40;41.05
58761;BME280;44529;47.464;19.014;2022-07-23T07:30:19;100064.25;;;28.72;40.83
58761;BME280;44529;47.464;19.014;2022-07-23T07:33:21;100060.50;;;29.08;40.54
58761;BME280;44529;47.464;19.014;2022-07-23T07:36:24;100059.09;;;29.41;39.47
58761;BME280;44529;47.464;19.014;2022-07-23T07:39:26;100068.38;;;29.77;39.00
58761;BME280;44529;47.464;19.014;2022-07-23T07:42:28;100058.53;;;30.10;38.25
58761;BME280;44529;47.464;19.014;2022-07-23T07:45:30;100063.66;;;30.46;38.23
58761;BME280;44529;47.464;19.014;2022-07-23T07:48:33;100062.97;;;30.77;37.51
58761;BME280;44529;47.464;19.014;2022-07-23T07:51:35;100066.75;;;31.05;36.53
58761;BME280;44529;47.464;19.014;2022-07-23T07:54:37;100063.03;;;31.30;35.80
58761;BME280;44529;47.464;19.014;2022-07-23T07:57:40;100056.00;;;31.57;34.95
58761;BME280;44529;47.464;19.014;2022-07-23T08:00:50;100054.56;;;31.92;34.28
58761;BME280;44529;47.464;19.014;2022-07-23T08:03:53;100053.38;;;32.30;32.73
58761;BME280;44529;47.464;19.014;2022-07-23T08:06:55;100053.22;;;32.70;31.70
58761;BME280;44529;47.464;19.014;2022-07-23T08:09:58;100054.28;;;33.09;32.22
58761;BME280;44529;47.464;19.014;2022-07-23T08:13:00;100051.13;;;33.26;31.45
58761;BME280;44529;47.464;19.014;2022-07-23T08:16:03;100049.88;;;33.27;31.94
58761;BME280;44529;47.464;19.014;2022-07-23T08:19:09;100059.00;;;33.46;30.33
58761;BME280;44529;47.464;19.014;2022-07-23T08:22:11;100059.12;;;33.84;30.04
58761;BME280;44529;47.464;19.014;2022-07-23T08:25:14;100052.53;;;34.20;29.20
58761;BME280;44529;47.464;19.014;2022-07-23T08:28:17;100056.91;;;34.60;28.17
58761;BME280;44529;47.464;19.014;2022-07-23T08:31:19;100049.38;;;34.96;28.43
58761;BME280;44529;47.464;19.014;2022-07-23T08:34:22;100050.91;;;35.26;27.44
58761;BME280;44529;47.464;19.014;2022-07-23T08:37:24;100046.50;;;35.55;27.13
58761;BME280;44529;47.464;19.014;2022-07-23T08:40:29;100049.53;;;35.87;26.09
58761;BME280;44529;47.464;19.014;2022-07-23T08:43:32;100051.66;;;36.32;26.17
58761;BME280;44529;47.464;19.014;2022-07-23T08:46:36;100046.19;;;36.44;25.39
58761;BME280;44529;47.464;19.014;2022-07-23T08:49:46;100044.50;;;36.78;25.43
58761;BME280;44529;47.464;19.014;2022-07-23T08:52:49;100047.25;;;36.72;24.24
58761;BME280;44529;47.464;19.014;2022-07-23T08:55:55;100042.31;;;37.19;24.45
58761;BME280;44529;47.464;19.014;2022-07-23T08:58:57;100051.09;;;37.64;23.57
58761;BME280;44529;47.464;19.014;2022-07-23T09:01:59;100047.00;;;37.65;23.14
58761;BME280;44529;47.464;19.014;2022-07-23T09:05:03;100040.34;;;38.16;22.82
58761;BME280;44529;47.464;19.014;2022-07-23T09:08:17;100044.84;;;38.45;22.01
58761;BME280;44529;47.464;19.014;2022-07-23T09:11:20;100036.13;;;38.60;21.66
58761;BME280;44529;47.464;19.014;2022-07-23T09:14:42;100042.84;;;38.74;21.68
58761;BME280;44529;47.464;19.014;2022-07-23T09:17:44;100035.91;;;39.09;21.29
58761;BME280;44529;47.464;19.014;2022-07-23T09:20:47;100039.28;;;39.24;21.42
58761;BME280;44529;47.464;19.014;2022-07-23T09:23:59;100034.41;;;39.36;21.22
58761;BME280;44529;47.464;19.014;2022-07-23T09:27:03;100040.06;;;39.36;21.10
58761;BME280;44529;47.464;19.014;2022-07-23T09:30:06;100036.94;;;39.39;20.75
58761;BME280;44529;47.464;19.014;2022-07-23T09:33:13;100040.81;;;39.36;21.04
58761;BME280;44529;47.464;19.014;2022-07-23T09:36:27;100034.13;;;39.62;20.74
58761;BME280;44529;47.464;19.014;2022-07-23T09:39:32;100027.69;;;39.61;20.83
58761;BME280;44529;47.464;19.014;2022-07-23T09:42:35;100036.19;;;39.05;21.31
58761;BME280;44529;47.464;19.014;2022-07-23T09:45:37;100033.09;;;39.09;21.13
58761;BME280;44529;47.464;19.014;2022-07-23T09:48:42;100021.56;;;39.23;20.95
58761;BME280;44529;47.464;19.014;2022-07-23T09:54:57;100014.06;;;39.32;20.98
58761;BME280;44529;47.464;19.014;2022-07-23T09:58:00;100019.72;;;39.15;21.18
58761;BME280;44529;47.464;19.014;2022-07-23T10:01:03;100017.69;;;39.10;20.87
58761;BME280;44529;47.464;19.014;2022-07-23T10:04:07;100009.19;;;39.38;20.94
58761;BME280;44529;47.464;19.014;2022-07-23T10:07:13;100005.28;;;39.46;20.52
58761;BME280;44529;47.464;19.014;2022-07-23T10:10:22;100008.66;;;39.39;20.37
58761;BME280;44529;47.464;19.014;2022-07-23T10:13:31;99998.31;;;39.53;20.95
58761;BME280;44529;47.464;19.014;2022-07-23T10:16:53;100003.22;;;39.64;20.49
58761;BME280;44529;47.464;19.014;2022-07-23T10:19:56;100001.44;;;39.49;20.22
58761;BME280;44529;47.464;19.014;2022-07-23T10:23:09;99989.59;;;39.51;20.32
58761;BME280;44529;47.464;19.014;2022-07-23T10:26:22;99998.31;;;39.53;20.44
58761;BME280;44529;47.464;19.014;2022-07-23T10:29:49;99992.44;;;39.40;20.67
58761;BME280;44529;47.464;19.014;2022-07-23T10:36:40;99988.34;;;39.13;20.96
58761;BME280;44529;47.464;19.014;2022-07-23T10:39:44;99987.59;;;39.23;20.29
58761;BME280;44529;47.464;19.014;2022-07-23T10:42:48;99987.06;;;39.31;20.30
58761;BME280;44529;47.464;19.014;2022-07-23T10:45:51;99979.84;;;39.35;20.49
58761;BME280;44529;47.464;19.014;2022-07-23T10:49:20;99970.56;;;39.46;20.05
58761;BME280;44529;47.464;19.014;2022-07-23T10:52:27;99970.84;;;39.42;20.24
58761;BME280;44529;47.464;19.014;2022-07-23T10:58:50;99961.53;;;39.53;20.40
58761;BME280;44529;47.464;19.014;2022-07-23T11:01:53;99946.13;;;39.48;21.04
58761;BME280;44529;47.464;19.014;2022-07-23T11:05:00;99959.22;;;39.51;20.68
58761;BME280;44529;47.464;19.014;2022-07-23T11:14:07;99949.47;;;39.41;19.71
58761;BME280;44529;47.464;19.014;2022-07-23T11:17:19;99939.94;;;39.44;18.26
58761;BME280;44529;47.464;19.014;2022-07-23T11:20:23;99947.69;;;39.33;18.22
58761;BME280;44529;47.464;19.014;2022-07-23T11:27:06;99934.84;;;39.15;18.46
58761;BME280;44529;47.464;19.014;2022-07-23T11:30:36;99932.31;;;39.17;18.26
58761;BME280;44529;47.464;19.014;2022-07-23T11:33:33;99925.87;;;38.99;17.97
58761;BME280;44529;47.464;19.014;2022-07-23T11:37:02;99930.00;;;38.93;18.51
58761;BME280;44529;47.464;19.014;2022-07-23T11:40:10;99921.81;;;38.72;18.15
58761;BME280;44529;47.464;19.014;2022-07-23T11:43:13;99912.78;;;38.68;18.51
58761;BME280;44529;47.464;19.014;2022-07-23T11:46:16;99911.50;;;38.69;19.04
58761;BME280;44529;47.464;19.014;2022-07-23T11:49:19;99908.16;;;38.77;19.45
58761;BME280;44529;47.464;19.014;2022-07-23T11:52:22;99915.88;;;38.76;19.58
58761;BME280;44529;47.464;19.014;2022-07-23T11:55:24;99894.31;;;38.79;18.63
58761;BME280;44529;47.464;19.014;2022-07-23T11:58:27;99899.44;;;38.74;19.16
58761;BME280;44529;47.464;19.014;2022-07-23T12:01:29;99888.63;;;38.90;19.12
58761;BME280;44529;47.464;19.014;2022-07-23T12:04:43;99886.06;;;38.97;19.11
58761;BME280;44529;47.464;19.014;2022-07-23T12:07:47;99887.56;;;39.10;18.27
58761;BME280;44529;47.464;19.014;2022-07-23T12:10:53;99882.94;;;39.01;18.42
58761;BME280;44529;47.464;19.014;2022-07-23T12:13:57;99875.53;;;38.87;19.48
58761;BME280;44529;47.464;19.014;2022-07-23T12:17:09;99867.28;;;38.83;19.19
58761;BME280;44529;47.464;19.014;2022-07-23T12:20:15;99866.03;;;38.67;18.61
58761;BME280;44529;47.464;19.014;2022-07-23T12:23:20;99871.69;;;38.84;18.72
58761;BME280;44529;47.464;19.014;2022-07-23T12:26:22;99866.81;;;38.85;19.54
58761;BME280;44529;47.464;19.014;2022-07-23T12:29:34;99857.56;;;38.84;19.55
58761;BME280;44529;47.464;19.014;2022-07-23T12:32:43;99856.78;;;38.78;19.39
58761;BME280;44529;47.464;19.014;2022-07-23T12:35:47;99847.25;;;38.87;18.58
58761;BME280;44529;47.464;19.014;2022-07-23T12:38:50;99852.66;;;38.85;18.47
58761;BME280;44529;47.464;19.014;2022-07-23T12:41:53;99842.13;;;38.74;18.92
58761;BME280;44529;47.464;19.014;2022-07-23T12:45:08;99849.56;;;38.77;18.48
58761;BME280;44529;47.464;19.014;2022-07-23T12:51:30;99833.41;;;38.61;18.55
58761;BME280;44529;47.464;19.014;2022-07-23T12:54:34;99836.22;;;38.66;18.63
58761;BME280;44529;47.464;19.014;2022-07-23T12:57:46;99835.72;;;38.73;18.54
58761;BME280;44529;47.464;19.014;2022-07-23T13:07:14;99830.53;;;38.83;18.66
58761;BME280;44529;47.464;19.014;2022-07-23T13:10:17;99817.16;;;38.84;19.37
58761;BME280;44529;47.464;19.014;2022-07-23T13:13:24;99824.16;;;38.71;19.57
58761;BME280;44529;47.464;19.014;2022-07-23T13:16:31;99819.81;;;38.37;20.11
58761;BME280;44529;47.464;19.014;2022-07-23T13:19:35;99814.91;;;38.04;20.38
58761;BME280;44529;47.464;19.014;2022-07-23T13:22:37;99819.72;;;37.75;20.63
58761;BME280;44529;47.464;19.014;2022-07-23T13:25:40;99807.38;;;37.61;21.09
58761;BME280;44529;47.464;19.014;2022-07-23T13:28:43;99798.34;;;37.46;21.04
58761;BME280;44529;47.464;19.014;2022-07-23T13:31:46;99790.97;;;37.77;20.66
58761;BME280;44529;47.464;19.014;2022-07-23T13:34:49;99792.56;;;37.94;20.11
58761;BME280;44529;47.464;19.014;2022-07-23T13:37:53;99778.19;;;38.04;20.03
58761;BME280;44529;47.464;19.014;2022-07-23T13:40:55;99772.78;;;38.06;19.96
58761;BME280;44529;47.464;19.014;2022-07-23T13:43:59;99763.56;;;38.05;19.91
58761;BME280;44529;47.464;19.014;2022-07-23T13:47:01;99761.78;;;38.13;19.89
58761;BME280;44529;47.464;19.014;2022-07-23T13:50:05;99761.25;;;38.15;20.01
58761;BME280;44529;47.464;19.014;2022-07-23T13:53:12;99759.44;;;38.06;19.85
58761;BME280;44529;47.464;19.014;2022-07-23T13:56:15;99764.84;;;37.87;19.65
58761;BME280;44529;47.464;19.014;2022-07-23T13:59:17;99763.25;;;37.58;19.70
58761;BME280;44529;47.464;19.014;2022-07-23T14:02:20;99765.25;;;37.47;19.66
58761;BME280;44529;47.464;19.014;2022-07-23T14:05:27;99755.03;;;37.66;19.51
58761;BME280;44529;47.464;19.014;2022-07-23T14:08:29;99754.03;;;37.80;18.56
58761;BME280;44529;47.464;19.014;2022-07-23T14:11:32;99749.94;;;37.92;18.38
58761;BME280;44529;47.464;19.014;2022-07-23T14:14:35;99746.88;;;37.96;18.20
58761;BME280;44529;47.464;19.014;2022-07-23T14:17:41;99745.84;;;37.99;18.13
58761;BME280;44529;47.464;19.014;2022-07-23T14:20:44;99741.25;;;38.02;18.44
58761;BME280;44529;47.464;19.014;2022-07-23T14:23:46;99743.53;;;38.09;18.37
58761;BME280;44529;47.464;19.014;2022-07-23T14:26:48;99731.97;;;38.18;17.60
58761;BME280;44529;47.464;19.014;2022-07-23T14:29:51;99718.87;;;38.15;17.78
58761;BME280;44529;47.464;19.014;2022-07-23T14:32:54;99709.41;;;37.96;18.64
58761;BME280;44529;47.464;19.014;2022-07-23T14:35:56;99708.12;;;37.85;19.02
58761;BME280;44529;47.464;19.014;2022-07-23T14:39:00;99698.38;;;37.81;18.84
58761;BME280;44529;47.464;19.014;2022-07-23T14:42:06;99697.88;;;37.88;18.87
58761;BME280;44529;47.464;19.014;2022-07-23T14:45:09;99678.88;;;37.94;17.90
58761;BME280;44529;47.464;19.014;2022-07-23T14:48:12;99675.00;;;37.86;17.92
58761;BME280;44529;47.464;19.014;2022-07-23T14:51:14;99682.19;;;37.59;18.24
58761;BME280;44529;47.464;19.014;2022-07-23T14:54:17;99680.13;;;37.37;18.58
58761;BME280;44529;47.464;19.014;2022-07-23T14:57:21;99685.66;;;37.09;18.90
58761;BME280;44529;47.464;19.014;2022-07-23T15:00:28;99699.94;;;36.88;19.16
58761;BME280;44529;47.464;19.014;2022-07-23T15:03:31;99691.94;;;36.76;19.76
58761;BME280;44529;47.464;19.014;2022-07-23T15:06:44;99692.94;;;36.67;19.91
58761;BME280;44529;47.464;19.014;2022-07-23T15:09:46;99687.50;;;36.58;19.96
58761;BME280;44529;47.464;19.014;2022-07-23T15:12:49;99702.81;;;36.46;19.91
58761;BME280;44529;47.464;19.014;2022-07-23T15:15:51;99699.97;;;36.40;19.76
58761;BME280;44529;47.464;19.014;2022-07-23T15:18:57;99696.25;;;36.23;19.88
58761;BME280;44529;47.464;19.014;2022-07-23T15:22:00;99709.44;;;36.05;20.30
58761;BME280;44529;47.464;19.014;2022-07-23T15:25:04;99713.16;;;35.91;20.24
58761;BME280;44529;47.464;19.014;2022-07-23T15:28:06;99708.47;;;35.83;20.50
58761;BME280;44529;47.464;19.014;2022-07-23T15:31:10;99706.56;;;35.68;20.79
58761;BME280;44529;47.464;19.014;2022-07-23T15:34:12;99701.09;;;35.59;20.75
58761;BME280;44529;47.464;19.014;2022-07-23T15:37:16;99759.78;;;35.46;22.74
58761;BME280;44529;47.464;19.014;2022-07-23T15:40:19;99765.34;;;34.99;26.46
58761;BME280;44529;47.464;19.014;2022-07-23T15:43:23;99792.22;;;34.36;29.05
58761;BME280;44529;47.464;19.014;2022-07-23T15:46:27;99796.75;;;33.59;30.93
58761;BME280;44529;47.464;19.014;2022-07-23T15:49:30;99813.22;;;32.95;32.34
58761;BME280;44529;47.464;19.014;2022-07-23T15:52:32;99790.09;;;32.52;33.36
58761;BME280;44529;47.464;19.014;2022-07-23T15:55:35;99781.63;;;32.28;33.75
58761;BME280;44529;47.464;19.014;2022-07-23T15:58:38;99773.31;;;31.73;34.86
58761;BME280;44529;47.464;19.014;2022-07-23T16:01:40;99797.41;;;31.79;34.32
58761;BME280;44529;47.464;19.014;2022-07-23T16:04:43;99805.66;;;31.65;34.31
58761;BME280;44529;47.464;19.014;2022-07-23T16:07:45;99818.41;;;31.57;34.12
58761;BME280;44529;47.464;19.014;2022-07-23T16:10:47;99806.75;;;31.31;34.66
58761;BME280;44529;47.464;19.014;2022-07-23T16:13:50;99843.19;;;31.36;33.93
58761;BME280;44529;47.464;19.014;2022-07-23T16:16:52;99868.81;;;31.35;33.81
58761;BME280;44529;47.464;19.014;2022-07-23T16:19:54;99894.66;;;31.17;34.63
58761;BME280;44529;47.464;19.014;2022-07-23T16:22:57;99874.56;;;30.82;36.37